KQEY

Geumsan Rws

Geumsan Rws, South Korea
METAR KQEY 231050Z AUTO 27004KT 9999 CLR 18/05 A2953 RMK A02 TSNO
Observed Flight Rules
May-23 @ 10:50 UTC (20 minutes ago) Visual Flight Rules
Wind Visibility Clouds
270° at 4 knots 10,000+ meters
  • Clear skies
Temperatures Readings
Current 18°C / 64°F
Dewpoint 5°C / 41°F
Humidity 43%
Altimeter 29.53" Hg
Pressure 1000 hPa
METAR KQEY 231050Z AUTO 27004KT 9999 CLR 18/05 A2953 RMK A02 TSNO
Observed Flight Rules
May-23 @ 10:50 UTC
(20 minutes ago)
VFR
Wind Visibility
270° at 4 knots 10,000+ meters
Clouds
  • Clear skies
Temperature Dewpoint
18°C / 64°F 5°C / 41°F
Humidity Altimeter Pressure
43% 29.53" Hg 1000 hPa